Time;durP1;ratioP1;P1;durP2;ratioP2;P2;SDS_P1;SDS_P2;PMS_P1;PMS_P2;Temp;Humidity;BMP_temperature;BMP_pressure;BME280_temperature;BME280_humidity;BME280_pressure;Samples;Min_cycle;Max_cycle;Signal;HPM_P1;HPM_P2
2023/03/15 00:00:44;;;;;;;;;;;2.80;99.90;;;;;;5072065;28;19963;-58
2023/03/15 00:03:09;;;;;;;;;;;2.80;99.90;;;;;;5072535;28;19913;-57
2023/03/15 00:05:35;;;;;;;;;;;2.90;99.90;;;;;;5071882;28;20001;-58
2023/03/15 00:08:01;;;;;;;;;;;2.90;99.90;;;;;;5072996;28;19909;-56
2023/03/15 00:10:27;;;;;;;;;;;2.90;99.90;;;;;;5072878;28;19908;-57
2023/03/15 00:12:52;;;;;;;;;;;2.90;99.90;;;;;;5073206;28;19915;-59
2023/03/15 00:15:18;;;;;;;;;;;2.90;99.90;;;;;;5092655;28;19920;-58
2023/03/15 00:17:43;;;;;;;;;;;2.80;99.90;;;;;;5092830;28;19908;-58
2023/03/15 00:20:10;;;;;;;;;;;2.80;99.90;;;;;;5091937;28;19908;-57
2023/03/15 00:22:35;;;;;;;;;;;2.80;99.90;;;;;;5092490;28;19908;-57
2023/03/15 00:25:01;;;;;;;;;;;2.80;99.90;;;;;;5085512;28;19912;-58
2023/03/15 00:27:26;;;;;;;;;;;2.80;99.90;;;;;;5071824;28;19959;-57
2023/03/15 00:29:52;;;;;;;;;;;2.90;99.90;;;;;;5072567;28;19908;-58
2023/03/15 00:32:17;;;;;;;;;;;2.80;99.90;;;;;;5072164;28;19985;-57
2023/03/15 00:34:47;;;;;;;;;;;2.80;99.90;;;;;;5071565;28;19932;-57
2023/03/15 00:37:15;;;;;;;;;;;2.80;99.90;;;;;;5072522;28;19991;-57
2023/03/15 00:39:44;;;;;;;;;;;2.70;99.90;;;;;;5071779;28;20355;-62
2023/03/15 00:42:10;;;;;;;;;;;2.70;99.90;;;;;;5072621;28;20399;-57
2023/03/15 00:44:35;;;;;;;;;;;2.70;99.90;;;;;;5072382;28;19909;-58
2023/03/15 00:47:01;;;;;;;;;;;2.70;99.90;;;;;;5071540;28;20800;-58
2023/03/15 00:49:26;;;;;;;;;;;2.70;99.90;;;;;;5072257;28;19916;-58
2023/03/15 00:51:53;;;;;;;;;;;2.80;99.90;;;;;;5078083;28;20003;-57
2023/03/15 00:54:22;;;;;;;;;;;2.90;99.90;;;;;;5091235;28;20018;-58
2023/03/15 00:56:48;;;;;;;;;;;2.90;99.90;;;;;;5092456;28;19908;-58
2023/03/15 00:59:13;;;;;;;;;;;3.00;99.90;;;;;;5092423;28;19914;-58
2023/03/15 01:01:43;;;;;;;;;;;3.00;99.90;;;;;;5091262;28;19920;-57
2023/03/15 01:04:11;;;;;;;;;;;3.00;99.90;;;;;;5092367;28;19912;-58
2023/03/15 01:06:37;;;;;;;;;;;3.00;99.90;;;;;;5092244;28;20014;-57
2023/03/15 01:09:03;;;;;;;;;;;2.90;99.90;;;;;;5091586;28;19990;-58
2023/03/15 01:11:28;;;;;;;;;;;2.90;99.90;;;;;;5076599;28;20306;-59
2023/03/15 01:13:55;;;;;;;;;;;2.90;99.90;;;;;;5094233;28;20458;-58
2023/03/15 01:16:21;;;;;;;;;;;2.90;99.90;;;;;;5094960;28;19962;-57
2023/03/15 01:18:47;;;;;;;;;;;2.90;99.90;;;;;;5095821;28;19951;-57
2023/03/15 01:21:13;;;;;;;;;;;2.90;99.90;;;;;;5095914;28;19962;-59
2023/03/15 01:23:39;;;;;;;;;;;2.90;99.90;;;;;;5094928;28;19947;-58
2023/03/15 01:26:05;;;;;;;;;;;2.90;99.90;;;;;;5095881;28;20330;-58
2023/03/15 01:28:31;;;;;;;;;;;2.90;99.90;;;;;;5095243;28;19941;-57
2023/03/15 01:30:57;;;;;;;;;;;2.80;99.90;;;;;;5094916;28;20252;-59
2023/03/15 01:33:22;;;;;;;;;;;2.90;99.90;;;;;;5095798;28;19915;-58
2023/03/15 01:35:56;;;;;;;;;;;2.80;99.90;;;;;;5095602;28;19917;-58
2023/03/15 01:38:22;;;;;;;;;;;2.80;99.90;;;;;;5095364;28;19908;-59
2023/03/15 01:40:47;;;;;;;;;;;2.80;99.90;;;;;;5095626;28;19912;-57
2023/03/15 01:43:15;;;;;;;;;;;2.70;99.90;;;;;;5077486;28;20386;-57
2023/03/15 01:45:50;;;;;;;;;;;2.80;99.90;;;;;;5091020;28;19919;-57
2023/03/15 01:48:15;;;;;;;;;;;2.70;99.90;;;;;;5095353;28;20382;-58
2023/03/15 01:50:41;;;;;;;;;;;2.70;99.90;;;;;;5085191;28;20007;-58
2023/03/15 01:53:07;;;;;;;;;;;2.70;99.90;;;;;;5075149;28;20367;-60
2023/03/15 01:55:32;;;;;;;;;;;2.60;99.90;;;;;;5074823;28;20382;-57
2023/03/15 01:57:59;;;;;;;;;;;2.60;99.90;;;;;;5074172;28;19908;-58
2023/03/15 02:00:25;;;;;;;;;;;2.60;99.90;;;;;;5074525;28;19920;-59
2023/03/15 02:02:53;;;;;;;;;;;2.60;99.90;;;;;;5074803;28;19908;-58
2023/03/15 02:05:27;;;;;;;;;;;2.60;99.90;;;;;;5074207;28;19912;-57
2023/03/15 02:07:53;;;;;;;;;;;2.60;99.90;;;;;;5074808;28;19913;-58
2023/03/15 02:10:22;;;;;;;;;;;2.60;99.90;;;;;;5074609;28;20003;-58
2023/03/15 02:12:50;;;;;;;;;;;2.60;99.90;;;;;;5085601;28;19913;-58
2023/03/15 02:15:16;;;;;;;;;;;2.60;99.90;;;;;;5079604;28;19920;-58
2023/03/15 02:17:43;;;;;;;;;;;2.50;99.90;;;;;;5074546;28;19934;-58
2023/03/15 02:20:27;;;;;;;;;;;2.50;99.90;;;;;;5073893;28;19967;-59
2023/03/15 02:22:57;;;;;;;;;;;2.40;99.90;;;;;;5073787;28;19909;-58
2023/03/15 02:25:29;;;;;;;;;;;2.40;99.90;;;;;;5073518;28;19915;-58
2023/03/15 02:27:56;;;;;;;;;;;2.30;99.90;;;;;;5074420;28;19956;-57
2023/03/15 02:30:22;;;;;;;;;;;2.30;99.90;;;;;;5074386;28;19999;-58
2023/03/15 02:32:48;;;;;;;;;;;2.30;99.90;;;;;;5073772;28;20332;-58
2023/03/15 02:35:21;;;;;;;;;;;2.30;99.90;;;;;;5074147;28;20018;-58
2023/03/15 02:37:46;;;;;;;;;;;2.30;99.90;;;;;;5074389;28;19909;-59
2023/03/15 02:40:16;;;;;;;;;;;2.20;99.90;;;;;;5073333;28;19909;-60
2023/03/15 02:42:42;;;;;;;;;;;2.20;99.90;;;;;;5074071;28;19962;-58
2023/03/15 02:45:07;;;;;;;;;;;2.20;99.90;;;;;;5074028;28;19908;-58
2023/03/15 02:47:33;;;;;;;;;;;2.20;99.90;;;;;;5073166;28;19916;-58
2023/03/15 02:49:58;;;;;;;;;;;2.10;99.90;;;;;;5073870;28;19913;-61
2023/03/15 02:52:25;;;;;;;;;;;2.10;99.90;;;;;;5073724;28;20344;-58
2023/03/15 02:54:50;;;;;;;;;;;2.10;99.90;;;;;;5073103;28;19923;-59
2023/03/15 02:57:17;;;;;;;;;;;2.00;99.90;;;;;;5074543;28;19912;-60
2023/03/15 02:59:43;;;;;;;;;;;2.10;99.90;;;;;;5065910;28;19908;-60
2023/03/15 03:02:10;;;;;;;;;;;2.10;99.90;;;;;;5072750;28;20459;-59
2023/03/15 03:04:40;;;;;;;;;;;2.00;99.90;;;;;;5073539;28;19912;-57
2023/03/15 03:07:05;;;;;;;;;;;2.00;99.90;;;;;;5073569;28;19908;-58
2023/03/15 03:09:31;;;;;;;;;;;2.00;99.90;;;;;;5072758;28;20363;-58
2023/03/15 03:11:57;;;;;;;;;;;2.00;99.90;;;;;;5073639;28;20371;-57
2023/03/15 03:14:22;;;;;;;;;;;2.00;99.90;;;;;;5073267;28;20458;-59
2023/03/15 03:16:48;;;;;;;;;;;2.00;99.90;;;;;;5072807;28;19915;-58
2023/03/15 03:19:13;;;;;;;;;;;1.90;99.90;;;;;;5086379;28;19973;-58
2023/03/15 03:21:42;;;;;;;;;;;1.90;99.90;;;;;;5092745;28;20336;-58
2023/03/15 03:24:08;;;;;;;;;;;1.90;99.90;;;;;;5093570;28;19908;-58
2023/03/15 03:26:33;;;;;;;;;;;1.90;99.90;;;;;;5093126;28;19919;-59
2023/03/15 03:28:59;;;;;;;;;;;1.80;99.90;;;;;;5092859;28;19973;-59
2023/03/15 03:31:26;;;;;;;;;;;1.80;99.90;;;;;;5093388;28;19915;-58
2023/03/15 03:33:51;;;;;;;;;;;1.80;99.90;;;;;;5092871;28;19908;-58
2023/03/15 03:36:17;;;;;;;;;;;1.70;99.90;;;;;;5092073;28;19966;-59
2023/03/15 03:38:44;;;;;;;;;;;1.80;99.90;;;;;;5093426;28;19908;-57
2023/03/15 03:41:10;;;;;;;;;;;1.70;99.90;;;;;;5093334;28;19912;-58
2023/03/15 03:43:36;;;;;;;;;;;1.70;99.90;;;;;;5092032;28;20002;-58
2023/03/15 03:46:01;;;;;;;;;;;1.70;99.90;;;;;;5093221;28;19915;-59
2023/03/15 03:48:27;;;;;;;;;;;1.60;99.90;;;;;;5092946;28;19998;-58
2023/03/15 03:50:52;;;;;;;;;;;1.70;99.90;;;;;;5092471;28;19915;-58
2023/03/15 03:53:18;;;;;;;;;;;1.70;99.90;;;;;;5093146;28;19934;-59
2023/03/15 03:55:45;;;;;;;;;;;1.70;99.90;;;;;;5092998;28;19916;-58
2023/03/15 03:58:10;;;;;;;;;;;1.70;99.90;;;;;;5092488;28;19914;-59
2023/03/15 04:00:36;;;;;;;;;;;1.60;99.90;;;;;;5092729;28;19920;-59
2023/03/15 04:03:01;;;;;;;;;;;1.60;99.90;;;;;;5093064;28;19912;-59
2023/03/15 04:05:27;;;;;;;;;;;1.60;99.90;;;;;;5092356;28;19913;-58
2023/03/15 04:07:53;;;;;;;;;;;1.60;99.90;;;;;;5092756;28;19994;-58
2023/03/15 04:10:25;;;;;;;;;;;1.60;99.90;;;;;;5080696;28;20399;-60
2023/03/15 04:12:54;;;;;;;;;;;1.60;99.90;;;;;;5072259;28;20058;-60
2023/03/15 04:15:21;;;;;;;;;;;1.60;99.90;;;;;;5072651;28;19927;-60
2023/03/15 04:17:47;;;;;;;;;;;1.70;99.90;;;;;;5071878;28;19909;-58
2023/03/15 04:20:12;;;;;;;;;;;1.60;99.90;;;;;;5072620;28;19908;-60
2023/03/15 04:22:38;;;;;;;;;;;1.60;99.90;;;;;;5072507;28;19928;-58
2023/03/15 04:25:04;;;;;;;;;;;1.60;99.90;;;;;;5071847;28;20026;-58
2023/03/15 04:27:29;;;;;;;;;;;1.60;99.90;;;;;;5072309;28;19959;-58
2023/03/15 04:29:55;;;;;;;;;;;1.60;99.90;;;;;;5072602;28;19962;-59
2023/03/15 04:32:20;;;;;;;;;;;1.60;99.90;;;;;;5053957;28;19913;-59
2023/03/15 04:34:50;;;;;;;;;;;1.60;99.90;;;;;;5072459;28;19973;-58
2023/03/15 04:37:18;;;;;;;;;;;1.60;99.90;;;;;;5072569;28;19915;-59
2023/03/15 04:39:44;;;;;;;;;;;1.60;99.90;;;;;;5089691;28;19908;-58
2023/03/15 04:42:09;;;;;;;;;;;1.60;99.90;;;;;;5092688;28;19912;-58
2023/03/15 04:44:35;;;;;;;;;;;1.60;99.90;;;;;;5092077;28;19981;-58
2023/03/15 04:47:00;;;;;;;;;;;1.60;99.90;;;;;;5094669;28;19972;-59
2023/03/15 04:49:26;;;;;;;;;;;1.60;99.90;;;;;;5096445;28;19908;-59
2023/03/15 04:51:51;;;;;;;;;;;1.60;99.90;;;;;;5096545;28;20389;-58
2023/03/15 04:54:17;;;;;;;;;;;1.60;99.90;;;;;;5095572;28;19919;-58
2023/03/15 04:56:42;;;;;;;;;;;1.60;99.90;;;;;;5096247;28;19912;-57
2023/03/15 04:59:09;;;;;;;;;;;1.60;99.90;;;;;;5096354;28;19916;-58
2023/03/15 05:01:35;;;;;;;;;;;1.60;99.90;;;;;;5095140;28;19993;-58
2023/03/15 05:04:00;;;;;;;;;;;1.50;99.90;;;;;;5096280;28;20359;-58
2023/03/15 05:06:26;;;;;;;;;;;1.50;99.90;;;;;;5095852;28;20331;-60
2023/03/15 05:08:52;;;;;;;;;;;1.50;99.90;;;;;;5095451;28;19908;-59
2023/03/15 05:11:17;;;;;;;;;;;1.50;99.90;;;;;;5096638;28;19916;-60
2023/03/15 05:13:43;;;;;;;;;;;1.50;99.90;;;;;;5096007;28;19912;-58
2023/03/15 05:16:08;;;;;;;;;;;1.50;99.90;;;;;;5095197;28;20378;-60
2023/03/15 05:18:34;;;;;;;;;;;1.50;99.90;;;;;;5095950;28;19996;-59
2023/03/15 05:20:59;;;;;;;;;;;1.50;99.90;;;;;;5095847;28;19912;-59
2023/03/15 05:23:25;;;;;;;;;;;1.40;99.90;;;;;;5095351;28;19908;-60
2023/03/15 05:25:54;;;;;;;;;;;1.50;99.90;;;;;;5095825;28;19908;-59
2023/03/15 05:28:23;;;;;;;;;;;1.50;99.90;;;;;;5094942;28;19965;-58
2023/03/15 05:30:50;;;;;;;;;;;1.50;99.90;;;;;;5095796;28;19911;-59
2023/03/15 05:33:16;;;;;;;;;;;1.50;99.90;;;;;;5095609;28;19915;-60
2023/03/15 05:35:43;;;;;;;;;;;1.40;99.90;;;;;;5094785;28;20351;-58
2023/03/15 05:38:13;;;;;;;;;;;1.40;99.90;;;;;;5078814;28;19913;-60
2023/03/15 05:40:45;;;;;;;;;;;1.30;99.90;;;;;;5075191;28;20406;-57
2023/03/15 05:43:11;;;;;;;;;;;1.30;99.90;;;;;;5090649;28;19915;-58
2023/03/15 05:45:37;;;;;;;;;;;1.20;99.90;;;;;;5092025;28;19965;-59
2023/03/15 05:48:03;;;;;;;;;;;1.20;99.90;;;;;;5075391;28;19916;-58
2023/03/15 05:50:28;;;;;;;;;;;1.20;99.90;;;;;;5074276;28;20292;-59
2023/03/15 05:52:54;;;;;;;;;;;1.30;99.90;;;;;;5074964;28;19935;-60
2023/03/15 05:55:20;;;;;;;;;;;1.20;99.90;;;;;;5077510;28;19929;-58
2023/03/15 05:57:45;;;;;;;;;;;1.30;99.90;;;;;;5093514;28;19915;-59
2023/03/15 06:00:13;;;;;;;;;;;1.20;99.90;;;;;;5094782;28;19912;-58
2023/03/15 06:02:39;;;;;;;;;;;1.20;99.90;;;;;;5094901;28;19912;-60
2023/03/15 06:05:05;;;;;;;;;;;1.20;99.90;;;;;;5094380;28;20003;-58
2023/03/15 06:07:31;;;;;;;;;;;1.20;99.90;;;;;;5084928;28;19999;-58
2023/03/15 06:09:56;;;;;;;;;;;1.30;99.90;;;;;;5056797;28;20257;-58
2023/03/15 06:12:22;;;;;;;;;;;1.30;99.90;;;;;;5074142;28;19909;-59
2023/03/15 06:14:47;;;;;;;;;;;1.30;99.90;;;;;;5074397;28;20363;-59
2023/03/15 06:17:12;;;;;;;;;;;1.30;99.90;;;;;;5074668;28;19909;-60
2023/03/15 06:19:38;;;;;;;;;;;1.30;99.90;;;;;;5073852;28;19912;-60
2023/03/15 06:22:03;;;;;;;;;;;1.30;99.90;;;;;;5074711;28;20387;-59
2023/03/15 06:24:29;;;;;;;;;;;1.40;99.90;;;;;;5080860;28;19923;-58
2023/03/15 06:26:55;;;;;;;;;;;1.40;99.90;;;;;;5083331;28;20363;-60
2023/03/15 06:29:20;;;;;;;;;;;1.40;99.90;;;;;;5074297;28;19916;-58
2023/03/15 06:31:48;;;;;;;;;;;1.40;99.90;;;;;;5076236;28;19912;-58
2023/03/15 06:34:14;;;;;;;;;;;1.40;99.90;;;;;;5091414;28;19912;-60
2023/03/15 06:36:41;;;;;;;;;;;1.40;99.90;;;;;;5113939;28;19961;-58
2023/03/15 06:39:07;;;;;;;;;;;1.40;99.90;;;;;;5072982;28;19920;-59
2023/03/15 06:41:32;;;;;;;;;;;1.40;99.90;;;;;;5076686;28;19920;-58
2023/03/15 06:43:58;;;;;;;;;;;1.50;99.90;;;;;;5094323;28;19908;-59
2023/03/15 06:46:23;;;;;;;;;;;1.50;99.90;;;;;;5093296;28;20306;-59
2023/03/15 06:48:49;;;;;;;;;;;1.50;99.90;;;;;;5095885;28;19912;-60
2023/03/15 06:51:14;;;;;;;;;;;1.60;99.90;;;;;;5101117;28;19919;-59
2023/03/15 06:53:39;;;;;;;;;;;1.50;99.90;;;;;;5073562;28;20385;-59
2023/03/15 06:56:05;;;;;;;;;;;1.50;99.90;;;;;;5085736;28;19927;-59
2023/03/15 06:58:30;;;;;;;;;;;1.60;99.90;;;;;;5082917;28;20425;-60
2023/03/15 07:00:56;;;;;;;;;;;1.70;99.90;;;;;;5093093;28;19969;-60
2023/03/15 07:03:22;;;;;;;;;;;1.70;99.90;;;;;;5093729;28;19959;-59
2023/03/15 07:05:51;;;;;;;;;;;1.80;99.90;;;;;;5091166;28;19912;-59
2023/03/15 07:08:17;;;;;;;;;;;1.80;99.90;;;;;;5072410;28;19951;-58
2023/03/15 07:10:42;;;;;;;;;;;1.90;99.90;;;;;;5073681;28;19952;-58
2023/03/15 07:13:08;;;;;;;;;;;2.00;99.90;;;;;;5073545;28;19989;-60
2023/03/15 07:15:35;;;;;;;;;;;2.00;99.90;;;;;;5088554;28;20459;-58
2023/03/15 07:18:00;;;;;;;;;;;2.10;99.90;;;;;;5093688;28;19909;-58
2023/03/15 07:20:26;;;;;;;;;;;2.20;99.90;;;;;;5093659;28;19961;-59
2023/03/15 07:22:51;;;;;;;;;;;2.30;99.90;;;;;;5092671;28;19931;-59
2023/03/15 07:25:22;;;;;;;;;;;2.40;99.90;;;;;;5093285;28;19908;-59
2023/03/15 07:27:51;;;;;;;;;;;2.40;99.90;;;;;;5092973;28;19961;-58
2023/03/15 07:30:17;;;;;;;;;;;2.50;99.90;;;;;;5093659;28;19912;-60
2023/03/15 07:32:43;;;;;;;;;;;2.50;99.90;;;;;;5093334;28;19969;-59
2023/03/15 07:35:08;;;;;;;;;;;2.60;99.90;;;;;;5092168;28;20008;-59
2023/03/15 07:37:34;;;;;;;;;;;2.70;99.90;;;;;;5093338;28;19923;-58
2023/03/15 07:40:08;;;;;;;;;;;2.80;99.90;;;;;;5093364;28;19908;-59
2023/03/15 07:42:36;;;;;;;;;;;2.90;99.90;;;;;;5095598;28;19909;-59
2023/03/15 07:45:06;;;;;;;;;;;3.00;99.90;;;;;;5098289;28;20367;-59
2023/03/15 07:47:31;;;;;;;;;;;3.10;99.90;;;;;;5101144;28;19943;-58
2023/03/15 07:49:57;;;;;;;;;;;3.10;99.90;;;;;;5097921;28;19958;-58
2023/03/15 07:52:23;;;;;;;;;;;3.30;99.90;;;;;;5099419;28;19958;-59
2023/03/15 07:54:49;;;;;;;;;;;3.30;99.90;;;;;;5100815;28;19919;-58
2023/03/15 07:57:14;;;;;;;;;;;3.40;99.90;;;;;;5100699;28;19908;-59
2023/03/15 07:59:40;;;;;;;;;;;3.50;99.90;;;;;;5100477;28;19916;-59
2023/03/15 08:02:06;;;;;;;;;;;3.60;99.90;;;;;;5100142;28;19920;-59
2023/03/15 08:04:31;;;;;;;;;;;3.70;99.90;;;;;;5096365;28;19912;-59
2023/03/15 08:06:57;;;;;;;;;;;3.80;99.90;;;;;;5099806;28;19914;-59
2023/03/15 08:09:22;;;;;;;;;;;3.90;99.90;;;;;;5101794;28;19943;-58
2023/03/15 08:11:48;;;;;;;;;;;4.00;99.90;;;;;;5097815;28;19934;-59
2023/03/15 08:14:13;;;;;;;;;;;4.10;99.90;;;;;;5096547;28;20446;-58
2023/03/15 08:16:39;;;;;;;;;;;4.20;99.90;;;;;;5099835;28;20445;-58
2023/03/15 08:19:04;;;;;;;;;;;4.20;99.90;;;;;;5100997;28;19965;-58
2023/03/15 08:21:32;;;;;;;;;;;4.30;99.90;;;;;;5098308;28;20275;-59
2023/03/15 08:23:58;;;;;;;;;;;4.40;99.90;;;;;;5104892;28;19980;-58
2023/03/15 08:26:23;;;;;;;;;;;4.50;99.90;;;;;;5107475;28;20425;-58
2023/03/15 08:28:49;;;;;;;;;;;4.60;99.90;;;;;;5108784;28;20007;-59
2023/03/15 08:31:14;;;;;;;;;;;4.70;99.90;;;;;;5107033;28;20326;-58
2023/03/15 08:33:40;;;;;;;;;;;4.80;99.90;;;;;;5107460;28;19994;-58
2023/03/15 08:36:05;;;;;;;;;;;4.80;99.90;;;;;;5099229;28;19922;-58
2023/03/15 08:38:31;;;;;;;;;;;4.80;99.90;;;;;;5091120;28;19912;-59
2023/03/15 08:40:57;;;;;;;;;;;4.90;99.90;;;;;;5092738;28;19912;-57
2023/03/15 08:43:22;;;;;;;;;;;5.00;99.90;;;;;;5086366;28;19913;-58
2023/03/15 08:45:49;;;;;;;;;;;5.00;99.90;;;;;;5087821;28;19912;-59
2023/03/15 08:48:14;;;;;;;;;;;5.10;99.90;;;;;;5105896;28;19915;-58
2023/03/15 08:50:40;;;;;;;;;;;5.20;99.90;;;;;;5101023;28;19916;-59
2023/03/15 08:53:05;;;;;;;;;;;5.30;99.90;;;;;;5082201;28;19913;-59
2023/03/15 08:55:31;;;;;;;;;;;5.40;99.90;;;;;;5079942;28;19920;-58
2023/03/15 08:57:56;;;;;;;;;;;5.50;99.90;;;;;;5077942;28;19962;-59
2023/03/15 09:00:22;;;;;;;;;;;5.50;99.90;;;;;;5076927;28;20389;-56
2023/03/15 09:02:48;;;;;;;;;;;5.50;99.90;;;;;;5078216;28;19962;-57
2023/03/15 09:05:15;;;;;;;;;;;5.60;99.90;;;;;;5077489;28;20574;-58
2023/03/15 09:07:41;;;;;;;;;;;5.60;99.90;;;;;;5077279;28;19958;-57
2023/03/15 09:10:08;;;;;;;;;;;5.70;99.90;;;;;;5078252;28;20291;-60
2023/03/15 09:12:51;;;;;;;;;;;5.70;99.90;;;;;;5076838;28;20261;-58
2023/03/15 09:15:16;;;;;;;;;;;5.80;99.90;;;;;;5077891;28;20019;-58
2023/03/15 09:17:42;;;;;;;;;;;5.80;99.90;;;;;;5078695;28;20010;-58
2023/03/15 09:20:13;;;;;;;;;;;5.90;99.90;;;;;;5078472;28;19916;-60
2023/03/15 09:22:42;;;;;;;;;;;6.00;99.90;;;;;;5088429;28;19912;-58
2023/03/15 09:25:08;;;;;;;;;;;6.10;99.90;;;;;;5099051;28;19908;-60
2023/03/15 09:27:34;;;;;;;;;;;6.10;99.90;;;;;;5098117;28;19916;-58
2023/03/15 09:30:00;;;;;;;;;;;6.10;99.90;;;;;;5098868;28;20004;-58
2023/03/15 09:32:25;;;;;;;;;;;6.10;99.90;;;;;;5096055;28;19966;-58
2023/03/15 09:34:51;;;;;;;;;;;6.20;99.90;;;;;;5094883;28;19955;-58
2023/03/15 09:37:16;;;;;;;;;;;6.20;99.90;;;;;;5095513;28;19991;-57
2023/03/15 09:39:42;;;;;;;;;;;6.30;99.90;;;;;;5095612;28;20359;-58
2023/03/15 09:42:15;;;;;;;;;;;6.30;99.90;;;;;;5094792;28;19908;-56
2023/03/15 09:44:44;;;;;;;;;;;6.40;99.90;;;;;;5095532;28;19916;-58
2023/03/15 09:47:16;;;;;;;;;;;6.40;99.90;;;;;;5095545;28;20005;-57
2023/03/15 09:49:46;;;;;;;;;;;6.40;99.90;;;;;;5094672;28;19908;-57
2023/03/15 09:52:20;;;;;;;;;;;6.50;99.90;;;;;;5079170;28;19966;-57
2023/03/15 09:54:54;;;;;;;;;;;6.50;95.70;;;;;;5075093;28;19939;-59
2023/03/15 09:57:23;;;;;;;;;;;6.40;99.90;;;;;;5074315;28;19958;-57
2023/03/15 09:59:51;;;;;;;;;;;6.40;99.90;;;;;;5075125;28;19915;-56
2023/03/15 10:02:16;;;;;;;;;;;6.50;99.80;;;;;;5074959;28;19927;-57
2023/03/15 10:04:42;;;;;;;;;;;6.60;99.90;;;;;;5074174;28;19913;-56
2023/03/15 10:07:12;;;;;;;;;;;6.70;99.90;;;;;;5074995;28;20370;-56
2023/03/15 10:09:38;;;;;;;;;;;6.70;98.30;;;;;;5074291;28;19967;-58
2023/03/15 10:12:03;;;;;;;;;;;6.70;99.90;;;;;;5074903;28;19947;-57
2023/03/15 10:14:35;;;;;;;;;;;6.70;98.60;;;;;;5074529;28;19916;-59
2023/03/15 10:17:05;;;;;;;;;;;6.80;99.90;;;;;;5074170;28;19912;-57
2023/03/15 10:19:50;;;;;;;;;;;7.00;99.90;;;;;;5056679;28;20334;-56
2023/03/15 10:22:22;;;;;;;;;;;7.10;98.90;;;;;;5089887;28;19908;-57
2023/03/15 10:25:06;;;;;;;;;;;7.10;88.30;;;;;;5094005;28;19966;-57
2023/03/15 10:27:42;;;;;;;;;;;7.10;83.30;;;;;;5094627;28;19909;-57
2023/03/15 10:30:15;;;;;;;;;;;7.20;95.60;;;;;;5093490;28;19914;-57
2023/03/15 10:32:44;;;;;;;;;;;7.20;89.50;;;;;;5073083;28;19919;-58
2023/03/15 10:35:14;;;;;;;;;;;7.20;90.60;;;;;;5090050;28;19917;-57
2023/03/15 10:37:41;;;;;;;;;;;7.00;86.60;;;;;;5099450;28;20419;-58
2023/03/15 10:40:14;;;;;;;;;;;7.00;90.00;;;;;;5094645;28;19911;-57
2023/03/15 10:42:41;;;;;;;;;;;7.10;99.90;;;;;;5099607;28;19972;-57
2023/03/15 10:45:18;;;;;;;;;;;7.40;93.40;;;;;;5083306;28;20282;-56
2023/03/15 10:47:44;;;;;;;;;;;7.50;90.90;;;;;;5073542;28;19962;-58
2023/03/15 10:50:15;;;;;;;;;;;7.60;88.80;;;;;;5073793;28;20052;-58
2023/03/15 10:52:44;;;;;;;;;;;7.60;79.90;;;;;;5072602;28;20000;-58
2023/03/15 10:55:14;;;;;;;;;;;7.50;80.90;;;;;;5073178;28;20442;-58
2023/03/15 10:57:49;;;;;;;;;;;7.40;76.70;;;;;;5072074;28;19913;-61
2023/03/15 11:00:25;;;;;;;;;;;7.50;81.00;;;;;;5077303;28;20825;-58
2023/03/15 11:02:59;;;;;;;;;;;7.50;84.50;;;;;;5081276;28;19970;-58
2023/03/15 11:05:28;;;;;;;;;;;7.60;80.40;;;;;;5070700;28;19913;-57
2023/03/15 11:07:55;;;;;;;;;;;7.60;77.70;;;;;;5073728;28;19912;-60
2023/03/15 11:10:22;;;;;;;;;;;7.60;81.30;;;;;;5076511;28;20368;-58
2023/03/15 11:12:47;;;;;;;;;;;7.60;82.80;;;;;;5079876;28;19995;-57
2023/03/15 11:15:14;;;;;;;;;;;7.60;84.20;;;;;;5075035;28;20361;-57
2023/03/15 11:17:42;;;;;;;;;;;7.60;87.50;;;;;;5099750;28;19926;-59
2023/03/15 11:20:29;;;;;;;;;;;7.80;87.10;;;;;;5072126;28;19924;-59
2023/03/15 11:22:55;;;;;;;;;;;8.00;87.50;;;;;;5081733;28;19939;-59
2023/03/15 11:25:22;;;;;;;;;;;8.00;86.40;;;;;;5088004;28;20018;-57
2023/03/15 11:27:52;;;;;;;;;;;8.20;90.30;;;;;;5087510;28;19971;-59
2023/03/15 11:30:20;;;;;;;;;;;8.20;91.60;;;;;;5085287;28;19912;-57
2023/03/15 11:32:46;;;;;;;;;;;7.90;90.30;;;;;;5074113;28;19908;-57
2023/03/15 11:35:13;;;;;;;;;;;7.70;96.20;;;;;;5074294;28;20414;-57
2023/03/15 11:37:41;;;;;;;;;;;7.50;87.40;;;;;;5073848;28;20016;-58
2023/03/15 11:40:15;;;;;;;;;;;7.50;89.40;;;;;;5074212;28;19920;-57
2023/03/15 11:42:45;;;;;;;;;;;7.70;82.70;;;;;;5083688;28;19916;-58
2023/03/15 11:45:21;;;;;;;;;;;8.00;82.90;;;;;;5100366;28;20351;-57
2023/03/15 11:47:50;;;;;;;;;;;8.30;82.00;;;;;;5098714;28;19980;-59
2023/03/15 11:50:15;;;;;;;;;;;8.50;86.00;;;;;;5096225;28;20010;-58
2023/03/15 11:52:41;;;;;;;;;;;8.30;88.30;;;;;;5073667;28;19987;-58
2023/03/15 11:55:14;;;;;;;;;;;8.00;83.90;;;;;;5076176;28;20432;-58
2023/03/15 11:57:41;;;;;;;;;;;7.90;84.60;;;;;;5072788;28;19915;-58
2023/03/15 12:00:36;;;;;;;;;;;8.00;87.70;;;;;;5072463;28;20011;-58
2023/03/15 12:03:21;;;;;;;;;;;8.10;78.50;;;;;;5062846;28;19973;-59
2023/03/15 12:05:50;;;;;;;;;;;8.30;70.50;;;;;;5072849;28;19915;-59
2023/03/15 12:08:26;;;;;;;;;;;8.50;71.40;;;;;;5072706;28;19908;-58
2023/03/15 12:10:52;;;;;;;;;;;8.60;74.30;;;;;;5072048;28;19912;-60
2023/03/15 12:13:25;;;;;;;;;;;8.50;73.60;;;;;;5072714;28;19908;-60
2023/03/15 12:15:52;;;;;;;;;;;8.30;75.90;;;;;;5071530;28;20287;-59
2023/03/15 12:18:23;;;;;;;;;;;8.00;72.10;;;;;;5071860;28;19915;-59
2023/03/15 12:20:50;;;;;;;;;;;8.00;73.60;;;;;;5072638;28;19909;-59
2023/03/15 12:23:16;;;;;;;;;;;8.20;69.20;;;;;;5071873;28;19962;-60
2023/03/15 12:25:44;;;;;;;;;;;8.40;67.90;;;;;;5072628;28;19908;-60
2023/03/15 12:28:18;;;;;;;;;;;8.60;64.20;;;;;;5072616;28;19916;-60
2023/03/15 12:30:44;;;;;;;;;;;8.80;66.40;;;;;;5075885;28;19908;-61
2023/03/15 12:33:15;;;;;;;;;;;8.90;65.70;;;;;;5092695;28;19919;-58
2023/03/15 12:35:41;;;;;;;;;;;9.00;65.20;;;;;;5092680;28;19917;-59
2023/03/15 12:38:30;;;;;;;;;;;9.10;68.40;;;;;;5091937;28;19908;-59
2023/03/15 12:40:56;;;;;;;;;;;9.20;71.00;;;;;;5092243;28;20352;-58
2023/03/15 12:43:34;;;;;;;;;;;9.30;68.70;;;;;;5092555;28;19908;-60
2023/03/15 12:46:00;;;;;;;;;;;9.30;65.80;;;;;;5091927;28;20007;-61
2023/03/15 12:48:26;;;;;;;;;;;9.40;68.80;;;;;;5092488;28;19958;-60
2023/03/15 12:50:53;;;;;;;;;;;9.40;66.90;;;;;;5092632;28;19920;-61
2023/03/15 12:53:20;;;;;;;;;;;9.40;64.90;;;;;;5091778;28;19915;-61
2023/03/15 12:55:46;;;;;;;;;;;9.50;65.70;;;;;;5092507;28;19916;-61
2023/03/15 12:58:12;;;;;;;;;;;9.50;62.30;;;;;;5091911;28;19908;-62
2023/03/15 13:00:39;;;;;;;;;;;9.40;56.20;;;;;;5088786;28;20279;-61
2023/03/15 13:03:15;;;;;;;;;;;9.50;54.40;;;;;;5078906;28;20286;-61
2023/03/15 13:05:49;;;;;;;;;;;9.40;58.10;;;;;;5071488;28;20302;-61
2023/03/15 13:08:22;;;;;;;;;;;9.50;60.40;;;;;;5075283;28;19951;-62
2023/03/15 13:11:09;;;;;;;;;;;9.60;58.80;;;;;;5075717;28;19909;-61
2023/03/15 13:13:53;;;;;;;;;;;9.70;55.00;;;;;;5075132;28;19997;-62
2023/03/15 13:16:23;;;;;;;;;;;9.90;62.00;;;;;;5075638;28;19920;-61
2023/03/15 13:19:24;;;;;;;;;;;9.80;62.10;;;;;;5075830;28;19961;-61
2023/03/15 13:21:59;;;;;;;;;;;9.80;62.40;;;;;;5043724;28;19920;-64
2023/03/15 13:24:47;;;;;;;;;;;9.90;60.40;;;;;;5075598;28;19958;-61
2023/03/15 13:27:28;;;;;;;;;;;9.90;57.00;;;;;;5069020;28;19947;-62
2023/03/15 13:29:53;;;;;;;;;;;10.00;57.70;;;;;;5075704;28;19908;-63
2023/03/15 13:32:21;;;;;;;;;;;10.20;56.70;;;;;;5075696;28;19962;-61
2023/03/15 13:34:47;;;;;;;;;;;10.40;56.90;;;;;;5081587;28;20279;-61
2023/03/15 13:37:14;;;;;;;;;;;10.70;61.00;;;;;;5095035;28;19912;-61
2023/03/15 13:39:51;;;;;;;;;;;10.70;57.30;;;;;;5095571;28;20275;-61
2023/03/15 13:42:18;;;;;;;;;;;10.90;61.10;;;;;;5095057;28;19909;-62
2023/03/15 13:44:43;;;;;;;;;;;11.10;59.00;;;;;;5095703;28;20046;-62
2023/03/15 13:47:17;;;;;;;;;;;11.00;57.60;;;;;;5095721;28;20028;-62
2023/03/15 13:49:43;;;;;;;;;;;11.00;53.50;;;;;;5095040;28;19912;-62
2023/03/15 13:52:13;;;;;;;;;;;11.00;53.00;;;;;;5079714;28;20422;-62
2023/03/15 13:54:40;;;;;;;;;;;10.90;55.80;;;;;;5074075;28;19928;-64
2023/03/15 13:57:07;;;;;;;;;;;10.80;54.20;;;;;;5075105;28;19909;-63
2023/03/15 13:59:55;;;;;;;;;;;10.90;53.20;;;;;;5074927;28;19908;-63
2023/03/15 14:02:26;;;;;;;;;;;11.00;53.40;;;;;;5068296;28;19924;-64
2023/03/15 14:04:55;;;;;;;;;;;11.10;55.50;;;;;;5074896;28;19909;-64
2023/03/15 14:07:39;;;;;;;;;;;11.20;53.30;;;;;;5074814;28;20026;-63
2023/03/15 14:10:23;;;;;;;;;;;11.50;53.20;;;;;;5074150;28;19909;-63
2023/03/15 14:12:49;;;;;;;;;;;11.40;52.50;;;;;;5074897;28;19963;-63
2023/03/15 14:15:21;;;;;;;;;;;11.80;54.30;;;;;;5074693;28;19916;-62
2023/03/15 14:18:09;;;;;;;;;;;11.80;51.60;;;;;;5074087;28;19908;-63
2023/03/15 14:21:01;;;;;;;;;;;11.70;55.50;;;;;;5069921;28;19965;-61
2023/03/15 14:23:28;;;;;;;;;;;11.20;58.70;;;;;;5091780;28;19912;-62
2023/03/15 14:26:02;;;;;;;;;;;10.90;55.30;;;;;;5094719;28;20497;-62
2023/03/15 14:28:30;;;;;;;;;;;11.00;55.40;;;;;;5094673;28;19912;-63
2023/03/15 14:30:56;;;;;;;;;;;11.20;53.20;;;;;;5093574;28;19915;-64
2023/03/15 14:33:32;;;;;;;;;;;11.00;53.00;;;;;;5094513;28;19912;-62